sensor_id;sensor_type;location;lat;lon;timestamp;pressure;altitude;pressure_sealevel;temperature;humidity
2036;BME280;23642;42.658;23.350;2022-10-23T00:02:01;53977.41;;;-146.31;92.78
2036;BME280;23642;42.658;23.350;2022-10-23T00:04:27;53979.47;;;-146.31;92.77
2036;BME280;23642;42.658;23.350;2022-10-23T00:06:54;53971.22;;;-146.31;92.51
2036;BME280;23642;42.658;23.350;2022-10-23T00:09:22;53981.53;;;-146.31;92.67
2036;BME280;23642;42.658;23.350;2022-10-23T00:11:50;53960.88;;;-146.31;92.64
2036;BME280;23642;42.658;23.350;2022-10-23T00:14:20;53962.94;;;-146.31;92.69
2036;BME280;23642;42.658;23.350;2022-10-23T00:16:48;53954.69;;;-146.31;92.46
2036;BME280;23642;42.658;23.350;2022-10-23T00:19:14;53954.69;;;-146.31;92.17
2036;BME280;23642;42.658;23.350;2022-10-23T00:21:41;53952.63;;;-146.31;91.14
2036;BME280;23642;42.658;23.350;2022-10-23T00:24:08;53965.03;;;-146.31;90.49
2036;BME280;23642;42.658;23.350;2022-10-23T00:26:35;53973.28;;;-146.31;90.36
2036;BME280;23642;42.658;23.350;2022-10-23T00:29:05;53993.91;;;-146.31;90.33
2036;BME280;23642;42.658;23.350;2022-10-23T00:31:33;53979.47;;;-146.31;90.82
2036;BME280;23642;42.658;23.350;2022-10-23T00:34:00;53954.69;;;-146.31;90.21
2036;BME280;23642;42.658;23.350;2022-10-23T00:36:28;53960.88;;;-146.31;89.74
2036;BME280;23642;42.658;23.350;2022-10-23T00:38:55;53956.75;;;-146.31;86.77
2036;BME280;23642;42.658;23.350;2022-10-23T00:41:24;54018.69;;;-146.31;86.65
2036;BME280;23642;42.658;23.350;2022-10-23T00:44:02;54018.69;;;-146.31;86.43
2036;BME280;23642;42.658;23.350;2022-10-23T00:46:30;54010.44;;;-146.31;87.24
2036;BME280;23642;42.658;23.350;2022-10-23T00:48:59;54014.56;;;-146.31;87.84
2036;BME280;23642;42.658;23.350;2022-10-23T00:51:28;53975.34;;;-146.31;88.24
2036;BME280;23642;42.658;23.350;2022-10-23T00:53:58;53998.06;;;-146.31;87.79
2036;BME280;23642;42.658;23.350;2022-10-23T00:56:25;54018.69;;;-146.31;87.39
2036;BME280;23642;42.658;23.350;2022-10-23T00:58:53;53996.00;;;-146.31;88.02
2036;BME280;23642;42.658;23.350;2022-10-23T01:01:21;53993.91;;;-146.31;88.20
2036;BME280;23642;42.658;23.350;2022-10-23T01:03:48;53969.16;;;-146.31;87.38
2036;BME280;23642;42.658;23.350;2022-10-23T01:06:28;53991.84;;;-146.31;86.19
2036;BME280;23642;42.658;23.350;2022-10-23T01:09:02;53977.41;;;-146.31;84.70
2036;BME280;23642;42.658;23.350;2022-10-23T01:11:39;53991.84;;;-146.31;85.02
2036;BME280;23642;42.658;23.350;2022-10-23T01:14:14;54008.38;;;-146.31;85.58
2036;BME280;23642;42.658;23.350;2022-10-23T01:16:51;54016.63;;;-146.31;86.14
2036;BME280;23642;42.658;23.350;2022-10-23T01:19:30;54018.69;;;-146.31;86.39
2036;BME280;23642;42.658;23.350;2022-10-23T01:22:11;54045.53;;;-146.31;87.77
2036;BME280;23642;42.658;23.350;2022-10-23T01:24:49;54062.06;;;-146.31;88.46
2036;BME280;23642;42.658;23.350;2022-10-23T01:27:22;54026.94;;;-146.31;89.59
2036;BME280;23642;42.658;23.350;2022-10-23T01:29:57;54039.34;;;-146.31;89.86
2036;BME280;23642;42.658;23.350;2022-10-23T01:32:33;54055.84;;;-146.31;90.05
2036;BME280;23642;42.658;23.350;2022-10-23T01:35:04;54055.84;;;-146.31;90.64
2036;BME280;23642;42.658;23.350;2022-10-23T01:37:37;54072.38;;;-146.31;91.43
2036;BME280;23642;42.658;23.350;2022-10-23T01:40:09;54020.75;;;-146.31;91.78
2036;BME280;23642;42.658;23.350;2022-10-23T01:42:43;54026.94;;;-146.31;91.13
2036;BME280;23642;42.658;23.350;2022-10-23T01:45:16;54010.44;;;-146.31;91.43
2036;BME280;23642;42.658;23.350;2022-10-23T01:47:44;54016.63;;;-146.31;90.74
2036;BME280;23642;42.658;23.350;2022-10-23T01:50:14;54010.44;;;-146.31;91.14
2036;BME280;23642;42.658;23.350;2022-10-23T01:52:42;53962.94;;;-146.31;90.44
2036;BME280;23642;42.658;23.350;2022-10-23T01:55:10;53971.22;;;-146.31;88.66
2036;BME280;23642;42.658;23.350;2022-10-23T01:57:41;53991.84;;;-146.31;88.38
2036;BME280;23642;42.658;23.350;2022-10-23T02:00:12;54002.19;;;-146.31;88.59
2036;BME280;23642;42.658;23.350;2022-10-23T02:02:40;54026.94;;;-146.31;89.19
2036;BME280;23642;42.658;23.350;2022-10-23T02:05:13;54022.81;;;-146.31;90.13
2036;BME280;23642;42.658;23.350;2022-10-23T02:07:40;54006.31;;;-146.31;90.65
2036;BME280;23642;42.658;23.350;2022-10-23T02:10:08;53998.06;;;-146.31;91.34
2036;BME280;23642;42.658;23.350;2022-10-23T02:12:42;54045.53;;;-146.31;91.49
2036;BME280;23642;42.658;23.350;2022-10-23T02:15:18;54000.13;;;-146.31;91.46
2036;BME280;23642;42.658;23.350;2022-10-23T02:17:52;54014.56;;;-146.31;90.84
2036;BME280;23642;42.658;23.350;2022-10-23T02:20:27;53998.06;;;-146.31;91.26
2036;BME280;23642;42.658;23.350;2022-10-23T02:22:59;54000.13;;;-146.31;90.99
2036;BME280;23642;42.658;23.350;2022-10-23T02:25:31;53983.59;;;-146.31;90.34
2036;BME280;23642;42.658;23.350;2022-10-23T02:28:02;53993.91;;;-146.31;89.58
2036;BME280;23642;42.658;23.350;2022-10-23T02:30:32;53965.03;;;-146.31;87.92
2036;BME280;23642;42.658;23.350;2022-10-23T02:33:01;53967.09;;;-146.31;86.30
2036;BME280;23642;42.658;23.350;2022-10-23T02:35:29;53989.78;;;-146.31;85.72
2036;BME280;23642;42.658;23.350;2022-10-23T02:37:59;53969.16;;;-146.31;84.71
2036;BME280;23642;42.658;23.350;2022-10-23T02:40:30;54016.63;;;-146.31;83.90
2036;BME280;23642;42.658;23.350;2022-10-23T02:43:07;53979.47;;;-146.31;83.43
2036;BME280;23642;42.658;23.350;2022-10-23T02:45:42;53985.66;;;-146.31;83.17
2036;BME280;23642;42.658;23.350;2022-10-23T02:48:17;53993.91;;;-146.31;83.20
2036;BME280;23642;42.658;23.350;2022-10-23T02:50:50;53996.00;;;-146.31;82.38
2036;BME280;23642;42.658;23.350;2022-10-23T02:53:24;54006.31;;;-146.31;82.64
2036;BME280;23642;42.658;23.350;2022-10-23T02:56:00;54010.44;;;-146.31;83.08
2036;BME280;23642;42.658;23.350;2022-10-23T02:58:34;54022.81;;;-146.31;84.43
2036;BME280;23642;42.658;23.350;2022-10-23T03:01:07;54035.22;;;-146.31;84.69
2036;BME280;23642;42.658;23.350;2022-10-23T03:03:38;54020.75;;;-146.31;84.77
2036;BME280;23642;42.658;23.350;2022-10-23T03:06:07;54060.00;;;-146.31;85.49
2036;BME280;23642;42.658;23.350;2022-10-23T03:08:41;54055.84;;;-146.31;86.02
2036;BME280;23642;42.658;23.350;2022-10-23T03:11:07;54055.84;;;-146.31;86.59
2036;BME280;23642;42.658;23.350;2022-10-23T03:13:38;54022.81;;;-146.31;86.77
2036;BME280;23642;42.658;23.350;2022-10-23T03:16:05;54022.81;;;-146.31;87.25
2036;BME280;23642;42.658;23.350;2022-10-23T03:18:32;54037.28;;;-146.31;87.14
2036;BME280;23642;42.658;23.350;2022-10-23T03:21:01;54014.56;;;-146.31;86.81
2036;BME280;23642;42.658;23.350;2022-10-23T03:23:27;53998.06;;;-146.31;86.89
2036;BME280;23642;42.658;23.350;2022-10-23T03:25:54;54002.19;;;-146.31;86.23
2036;BME280;23642;42.658;23.350;2022-10-23T03:28:21;54000.13;;;-146.31;85.72
2036;BME280;23642;42.658;23.350;2022-10-23T03:30:49;53975.34;;;-146.31;86.28
2036;BME280;23642;42.658;23.350;2022-10-23T03:33:16;53983.59;;;-146.31;85.53
2036;BME280;23642;42.658;23.350;2022-10-23T03:35:42;54000.13;;;-146.31;85.99
2036;BME280;23642;42.658;23.350;2022-10-23T03:38:09;53985.66;;;-146.31;86.44
2036;BME280;23642;42.658;23.350;2022-10-23T03:40:36;53987.72;;;-146.31;86.27
2036;BME280;23642;42.658;23.350;2022-10-23T03:43:06;54024.88;;;-146.31;86.11
2036;BME280;23642;42.658;23.350;2022-10-23T03:45:33;53989.78;;;-146.31;84.87
2036;BME280;23642;42.658;23.350;2022-10-23T03:48:04;54018.69;;;-146.31;83.14
2036;BME280;23642;42.658;23.350;2022-10-23T03:50:30;54026.94;;;-146.31;80.87
2036;BME280;23642;42.658;23.350;2022-10-23T03:52:57;54022.81;;;-146.31;79.81
2036;BME280;23642;42.658;23.350;2022-10-23T03:55:24;54031.09;;;-146.31;79.72
2036;BME280;23642;42.658;23.350;2022-10-23T03:57:51;54035.22;;;-146.31;80.25
2036;BME280;23642;42.658;23.350;2022-10-23T04:00:18;54093.03;;;-146.31;76.69
2036;BME280;23642;42.658;23.350;2022-10-23T04:02:45;54097.16;;;-146.31;77.05
2036;BME280;23642;42.658;23.350;2022-10-23T04:05:13;54095.09;;;-146.31;76.16
2036;BME280;23642;42.658;23.350;2022-10-23T04:07:40;54072.38;;;-146.31;74.72
2036;BME280;23642;42.658;23.350;2022-10-23T04:10:07;54099.22;;;-146.31;73.91
2036;BME280;23642;42.658;23.350;2022-10-23T04:12:34;54101.28;;;-146.31;72.95
2036;BME280;23642;42.658;23.350;2022-10-23T04:15:03;54113.66;;;-146.31;71.76
2036;BME280;23642;42.658;23.350;2022-10-23T04:17:29;54138.44;;;-146.31;70.76
2036;BME280;23642;42.658;23.350;2022-10-23T04:19:58;54148.78;;;-146.31;69.53
2036;BME280;23642;42.658;23.350;2022-10-23T04:22:26;54185.94;;;-146.31;70.50
2036;BME280;23642;42.658;23.350;2022-10-23T04:24:53;54204.50;;;-146.31;70.95
2036;BME280;23642;42.658;23.350;2022-10-23T04:27:21;54196.25;;;-146.31;70.39
2036;BME280;23642;42.658;23.350;2022-10-23T04:29:48;54212.78;;;-146.31;70.67
2036;BME280;23642;42.658;23.350;2022-10-23T04:32:17;54229.28;;;-146.31;70.63
2036;BME280;23642;42.658;23.350;2022-10-23T04:34:44;54210.72;;;-146.31;71.22
2036;BME280;23642;42.658;23.350;2022-10-23T04:37:11;54208.63;;;-146.31;70.82
2036;BME280;23642;42.658;23.350;2022-10-23T04:39:40;54208.63;;;-146.31;70.65
2036;BME280;23642;42.658;23.350;2022-10-23T04:42:07;54221.03;;;-146.31;71.54
2036;BME280;23642;42.658;23.350;2022-10-23T04:44:34;54239.63;;;-146.31;71.28
2036;BME280;23642;42.658;23.350;2022-10-23T04:47:02;54202.44;;;-146.31;71.50
2036;BME280;23642;42.658;23.350;2022-10-23T04:49:31;54237.53;;;-146.31;72.20
2036;BME280;23642;42.658;23.350;2022-10-23T04:51:58;54272.66;;;-146.31;72.50
2036;BME280;23642;42.658;23.350;2022-10-23T04:54:25;54245.81;;;-146.31;72.80
2036;BME280;23642;42.658;23.350;2022-10-23T04:56:53;54245.81;;;-146.31;72.16
2036;BME280;23642;42.658;23.350;2022-10-23T04:59:22;54237.53;;;-146.31;72.08
2036;BME280;23642;42.658;23.350;2022-10-23T05:01:48;54206.56;;;-146.31;71.97
2036;BME280;23642;42.658;23.350;2022-10-23T05:04:15;54249.94;;;-146.31;72.80
2036;BME280;23642;42.658;23.350;2022-10-23T05:06:42;54270.59;;;-146.31;74.43
2036;BME280;23642;42.658;23.350;2022-10-23T05:09:08;54252.00;;;-146.31;75.27
2036;BME280;23642;42.658;23.350;2022-10-23T05:11:35;54266.44;;;-146.31;76.15
2036;BME280;23642;42.658;23.350;2022-10-23T05:14:06;54260.25;;;-146.31;76.62
2036;BME280;23642;42.658;23.350;2022-10-23T05:16:39;54280.91;;;-146.31;75.06
2036;BME280;23642;42.658;23.350;2022-10-23T05:19:14;54243.75;;;-146.31;75.17
2036;BME280;23642;42.658;23.350;2022-10-23T05:21:44;54241.69;;;-146.31;70.52
2036;BME280;23642;42.658;23.350;2022-10-23T05:24:11;54216.91;;;-146.31;68.24
2036;BME280;23642;42.658;23.350;2022-10-23T05:26:38;54227.22;;;-146.31;67.17
2036;BME280;23642;42.658;23.350;2022-10-23T05:29:04;54185.94;;;-146.31;66.79
2036;BME280;23642;42.658;23.350;2022-10-23T05:31:34;54192.13;;;-146.31;66.20
2036;BME280;23642;42.658;23.350;2022-10-23T05:34:01;54192.13;;;-146.31;66.00
2036;BME280;23642;42.658;23.350;2022-10-23T05:36:28;54196.25;;;-146.31;66.20
2036;BME280;23642;42.658;23.350;2022-10-23T05:38:55;54192.13;;;-146.31;66.17
2036;BME280;23642;42.658;23.350;2022-10-23T05:41:22;54146.69;;;-146.31;64.74
2036;BME280;23642;42.658;23.350;2022-10-23T05:43:49;54128.13;;;-146.31;64.18
2036;BME280;23642;42.658;23.350;2022-10-23T05:46:15;54109.53;;;-146.31;64.48
2036;BME280;23642;42.658;23.350;2022-10-23T05:48:45;54088.88;;;-146.31;64.90
2036;BME280;23642;42.658;23.350;2022-10-23T05:51:17;54072.38;;;-146.31;64.51
2036;BME280;23642;42.658;23.350;2022-10-23T05:53:46;54072.38;;;-146.31;64.63
2036;BME280;23642;42.658;23.350;2022-10-23T05:56:13;54055.84;;;-146.31;65.64
2036;BME280;23642;42.658;23.350;2022-10-23T05:58:40;54060.00;;;-146.31;65.68
2036;BME280;23642;42.658;23.350;2022-10-23T06:01:07;54037.28;;;-146.31;66.13
2036;BME280;23642;42.658;23.350;2022-10-23T06:03:35;54035.22;;;-146.31;66.05
2036;BME280;23642;42.658;23.350;2022-10-23T06:06:04;53975.34;;;-146.31;67.76
2036;BME280;23642;42.658;23.350;2022-10-23T06:08:32;53965.03;;;-146.31;67.45
2036;BME280;23642;42.658;23.350;2022-10-23T06:11:04;53944.38;;;-146.31;68.04
2036;BME280;23642;42.658;23.350;2022-10-23T06:13:31;53901.03;;;-146.31;68.20
2036;BME280;23642;42.658;23.350;2022-10-23T06:16:07;53843.22;;;-146.31;67.88
2036;BME280;23642;42.658;23.350;2022-10-23T06:18:34;53839.09;;;-146.31;66.76
2036;BME280;23642;42.658;23.350;2022-10-23T06:21:01;53865.91;;;-146.31;65.93
2036;BME280;23642;42.658;23.350;2022-10-23T06:23:30;53810.19;;;-146.31;69.58
2036;BME280;23642;42.658;23.350;2022-10-23T06:25:58;53733.78;;;-146.31;69.74
2036;BME280;23642;42.658;23.350;2022-10-23T06:28:24;53715.22;;;-146.31;69.98
2036;BME280;23642;42.658;23.350;2022-10-23T06:30:51;53653.28;;;-146.31;70.89
2036;BME280;23642;42.658;23.350;2022-10-23T06:33:18;53665.66;;;-146.31;71.53
2036;BME280;23642;42.658;23.350;2022-10-23T06:35:45;53642.97;;;-146.31;72.45
2036;BME280;23642;42.658;23.350;2022-10-23T06:38:12;53618.19;;;-146.31;72.75
2036;BME280;23642;42.658;23.350;2022-10-23T06:40:40;53630.56;;;-146.31;72.97
2036;BME280;23642;42.658;23.350;2022-10-23T06:43:07;53609.94;;;-146.31;72.49
2036;BME280;23642;42.658;23.350;2022-10-23T06:45:34;53578.97;;;-146.31;71.77
2036;BME280;23642;42.658;23.350;2022-10-23T06:48:01;53581.03;;;-146.31;72.13
2036;BME280;23642;42.658;23.350;2022-10-23T06:50:27;53599.63;;;-146.31;72.43
2036;BME280;23642;42.658;23.350;2022-10-23T06:52:55;53587.22;;;-146.31;72.05
2036;BME280;23642;42.658;23.350;2022-10-23T06:55:25;53574.84;;;-146.31;72.49
2036;BME280;23642;42.658;23.350;2022-10-23T06:57:54;53576.91;;;-146.31;72.60
2036;BME280;23642;42.658;23.350;2022-10-23T07:00:20;53614.06;;;-146.31;72.79
2036;BME280;23642;42.658;23.350;2022-10-23T07:02:47;53605.81;;;-146.31;72.68
2036;BME280;23642;42.658;23.350;2022-10-23T07:05:14;53595.47;;;-146.31;72.27
2036;BME280;23642;42.658;23.350;2022-10-23T07:07:41;53545.94;;;-146.31;71.75
2036;BME280;23642;42.658;23.350;2022-10-23T07:10:11;53543.88;;;-146.31;71.71
2036;BME280;23642;42.658;23.350;2022-10-23T07:12:37;53556.25;;;-146.31;70.75
2036;BME280;23642;42.658;23.350;2022-10-23T07:15:07;53585.16;;;-146.31;70.91
2036;BME280;23642;42.658;23.350;2022-10-23T07:17:34;53583.09;;;-146.31;71.33
2036;BME280;23642;42.658;23.350;2022-10-23T07:20:00;53568.66;;;-146.31;71.54
2036;BME280;23642;42.658;23.350;2022-10-23T07:22:27;53572.78;;;-146.31;71.47
2036;BME280;23642;42.658;23.350;2022-10-23T07:24:54;53576.91;;;-146.31;71.77
2036;BME280;23642;42.658;23.350;2022-10-23T07:27:21;53585.16;;;-146.31;71.67
2036;BME280;23642;42.658;23.350;2022-10-23T07:29:50;53558.31;;;-146.31;71.54
2036;BME280;23642;42.658;23.350;2022-10-23T07:32:20;53576.91;;;-146.31;71.28
2036;BME280;23642;42.658;23.350;2022-10-23T07:34:48;53609.94;;;-146.31;70.50
2036;BME280;23642;42.658;23.350;2022-10-23T07:37:15;53585.16;;;-146.31;70.20
2036;BME280;23642;42.658;23.350;2022-10-23T07:39:41;53593.41;;;-146.31;69.69
2036;BME280;23642;42.658;23.350;2022-10-23T07:42:09;53564.53;;;-146.31;69.77
2036;BME280;23642;42.658;23.350;2022-10-23T07:44:36;53572.78;;;-146.31;68.66
2036;BME280;23642;42.658;23.350;2022-10-23T07:47:03;53597.56;;;-146.31;68.68
2036;BME280;23642;42.658;23.350;2022-10-23T07:49:32;53545.94;;;-146.31;68.13
2036;BME280;23642;42.658;23.350;2022-10-23T07:51:58;53568.66;;;-146.31;67.19
2036;BME280;23642;42.658;23.350;2022-10-23T07:54:27;53560.41;;;-146.31;67.18
2036;BME280;23642;42.658;23.350;2022-10-23T07:56:54;53593.41;;;-146.31;66.13
2036;BME280;23642;42.658;23.350;2022-10-23T07:59:21;53618.19;;;-146.31;65.90
2036;BME280;23642;42.658;23.350;2022-10-23T08:01:48;53605.81;;;-146.31;65.35
2036;BME280;23642;42.658;23.350;2022-10-23T08:04:14;53581.03;;;-146.31;65.40
2036;BME280;23642;42.658;23.350;2022-10-23T08:06:43;53593.41;;;-146.31;64.88
2036;BME280;23642;42.658;23.350;2022-10-23T08:09:12;53581.03;;;-146.31;65.15
2036;BME280;23642;42.658;23.350;2022-10-23T08:11:39;53618.19;;;-146.31;64.68
2036;BME280;23642;42.658;23.350;2022-10-23T08:14:06;53601.69;;;-146.31;64.78
2036;BME280;23642;42.658;23.350;2022-10-23T08:16:35;53595.47;;;-146.31;64.65
2036;BME280;23642;42.658;23.350;2022-10-23T08:19:03;53583.09;;;-146.31;64.71
2036;BME280;23642;42.658;23.350;2022-10-23T08:21:30;53597.56;;;-146.31;65.19
2036;BME280;23642;42.658;23.350;2022-10-23T08:23:59;53574.84;;;-146.31;65.44
2036;BME280;23642;42.658;23.350;2022-10-23T08:26:29;53601.69;;;-146.31;65.35
2036;BME280;23642;42.658;23.350;2022-10-23T08:28:57;53599.63;;;-146.31;64.85
2036;BME280;23642;42.658;23.350;2022-10-23T08:31:24;53589.28;;;-146.31;64.69
2036;BME280;23642;42.658;23.350;2022-10-23T08:33:51;53607.88;;;-146.31;64.35
2036;BME280;23642;42.658;23.350;2022-10-23T08:36:20;53618.19;;;-146.31;64.36
2036;BME280;23642;42.658;23.350;2022-10-23T08:38:47;53609.94;;;-146.31;64.43
2036;BME280;23642;42.658;23.350;2022-10-23T08:41:26;53614.06;;;-146.31;64.08
2036;BME280;23642;42.658;23.350;2022-10-23T08:43:58;53558.31;;;-146.31;64.75
2036;BME280;23642;42.658;23.350;2022-10-23T08:46:30;53543.88;;;-146.31;64.65
2036;BME280;23642;42.658;23.350;2022-10-23T08:49:04;53539.75;;;-146.31;64.95
2036;BME280;23642;42.658;23.350;2022-10-23T08:51:36;53556.25;;;-146.31;65.63
2036;BME280;23642;42.658;23.350;2022-10-23T08:54:12;53552.13;;;-146.31;66.43
2036;BME280;23642;42.658;23.350;2022-10-23T08:56:45;53556.25;;;-146.31;66.23
2036;BME280;23642;42.658;23.350;2022-10-23T08:59:18;53548.00;;;-146.31;63.73
2036;BME280;23642;42.658;23.350;2022-10-23T09:01:51;53543.88;;;-146.31;62.82
2036;BME280;23642;42.658;23.350;2022-10-23T09:04:21;53533.56;;;-146.31;62.50
2036;BME280;23642;42.658;23.350;2022-10-23T09:06:52;53539.75;;;-146.31;61.67
2036;BME280;23642;42.658;23.350;2022-10-23T09:09:33;53535.63;;;-146.31;61.63
2036;BME280;23642;42.658;23.350;2022-10-23T09:12:09;53550.06;;;-146.31;62.17
2036;BME280;23642;42.658;23.350;2022-10-23T09:17:26;53504.66;;;-146.31;60.78
2036;BME280;23642;42.658;23.350;2022-10-23T09:19:59;53488.13;;;-146.31;60.38
2036;BME280;23642;42.658;23.350;2022-10-23T09:22:27;53492.28;;;-146.31;59.68
2036;BME280;23642;42.658;23.350;2022-10-23T09:24:54;53512.91;;;-146.31;59.71
2036;BME280;23642;42.658;23.350;2022-10-23T09:27:22;53475.75;;;-146.31;59.31
2036;BME280;23642;42.658;23.350;2022-10-23T09:29:51;53494.34;;;-146.31;58.46
2036;BME280;23642;42.658;23.350;2022-10-23T09:32:19;53477.81;;;-146.31;58.41
2036;BME280;23642;42.658;23.350;2022-10-23T09:34:52;53494.34;;;-146.31;58.47
2036;BME280;23642;42.658;23.350;2022-10-23T09:37:22;53508.78;;;-146.31;57.76
2036;BME280;23642;42.658;23.350;2022-10-23T09:40:00;53523.22;;;-146.31;57.46
2036;BME280;23642;42.658;23.350;2022-10-23T09:42:34;53508.78;;;-146.31;57.72
2036;BME280;23642;42.658;23.350;2022-10-23T09:45:01;53512.91;;;-146.31;56.93
2036;BME280;23642;42.658;23.350;2022-10-23T09:47:28;53543.88;;;-146.31;56.54
2036;BME280;23642;42.658;23.350;2022-10-23T09:49:55;53510.84;;;-146.31;56.50
2036;BME280;23642;42.658;23.350;2022-10-23T09:52:27;53554.19;;;-146.31;55.96
2036;BME280;23642;42.658;23.350;2022-10-23T09:54:56;53519.09;;;-146.31;55.72
2036;BME280;23642;42.658;23.350;2022-10-23T09:57:29;53564.53;;;-146.31;54.87
2036;BME280;23642;42.658;23.350;2022-10-23T10:00:00;53589.28;;;-146.31;54.81
2036;BME280;23642;42.658;23.350;2022-10-23T10:02:30;53593.41;;;-146.31;54.80
2036;BME280;23642;42.658;23.350;2022-10-23T10:04:58;53603.75;;;-146.31;54.21
2036;BME280;23642;42.658;23.350;2022-10-23T10:07:27;53564.53;;;-146.31;54.63
2036;BME280;23642;42.658;23.350;2022-10-23T10:09:56;53558.31;;;-146.31;53.81
2036;BME280;23642;42.658;23.350;2022-10-23T10:12:51;53638.84;;;-146.31;52.49
2036;BME280;23642;42.658;23.350;2022-10-23T10:15:26;53645.03;;;-146.31;51.57
2036;BME280;23642;42.658;23.350;2022-10-23T10:18:00;53702.84;;;-146.31;51.21
2036;BME280;23642;42.658;23.350;2022-10-23T10:23:33;53630.56;;;-146.31;51.67
2036;BME280;23642;42.658;23.350;2022-10-23T10:26:12;53605.81;;;-146.31;51.27
2036;BME280;23642;42.658;23.350;2022-10-23T10:29:04;53696.63;;;-146.31;48.91
2036;BME280;23642;42.658;23.350;2022-10-23T10:31:42;53715.22;;;-146.31;47.42
2036;BME280;23642;42.658;23.350;2022-10-23T10:34:22;53746.19;;;-146.31;47.76
2036;BME280;23642;42.658;23.350;2022-10-23T10:36:53;53785.41;;;-146.31;47.73
2036;BME280;23642;42.658;23.350;2022-10-23T10:39:30;53775.09;;;-146.31;47.91
2036;BME280;23642;42.658;23.350;2022-10-23T10:42:22;53816.38;;;-146.31;47.35
2036;BME280;23642;42.658;23.350;2022-10-23T10:45:00;53841.16;;;-146.31;46.71
2036;BME280;23642;42.658;23.350;2022-10-23T10:47:42;53896.88;;;-146.31;47.01
2036;BME280;23642;42.658;23.350;2022-10-23T10:50:16;53940.25;;;-146.31;46.46
2036;BME280;23642;42.658;23.350;2022-10-23T10:52:50;54068.25;;;-146.31;46.11
2036;BME280;23642;42.658;23.350;2022-10-23T10:55:25;54126.06;;;-146.31;45.91
2036;BME280;23642;42.658;23.350;2022-10-23T10:57:56;54101.28;;;-146.31;46.31
2036;BME280;23642;42.658;23.350;2022-10-23T11:00:28;54126.06;;;-146.31;46.66
2036;BME280;23642;42.658;23.350;2022-10-23T11:02:59;54165.28;;;-146.31;45.50
2036;BME280;23642;42.658;23.350;2022-10-23T11:05:30;54192.13;;;-146.31;45.65
2036;BME280;23642;42.658;23.350;2022-10-23T11:08:00;54171.47;;;-146.31;45.76
2036;BME280;23642;42.658;23.350;2022-10-23T11:10:30;54190.06;;;-146.31;45.94
2036;BME280;23642;42.658;23.350;2022-10-23T11:12:58;54241.69;;;-146.31;45.77
2036;BME280;23642;42.658;23.350;2022-10-23T11:15:29;54221.03;;;-146.31;45.58
2036;BME280;23642;42.658;23.350;2022-10-23T11:18:02;54181.81;;;-146.31;45.47
2036;BME280;23642;42.658;23.350;2022-10-23T11:20:47;54225.16;;;-146.31;44.97
2036;BME280;23642;42.658;23.350;2022-10-23T11:26:27;54262.31;;;-146.31;45.24
2036;BME280;23642;42.658;23.350;2022-10-23T11:29:29;54270.59;;;-146.31;44.94
2036;BME280;23642;42.658;23.350;2022-10-23T11:32:13;54258.19;;;-146.31;45.18
2036;BME280;23642;42.658;23.350;2022-10-23T11:35:03;54225.16;;;-146.31;45.69
2036;BME280;23642;42.658;23.350;2022-10-23T11:37:33;54239.63;;;-146.31;45.86
2036;BME280;23642;42.658;23.350;2022-10-23T11:40:17;54260.25;;;-146.31;45.84
2036;BME280;23642;42.658;23.350;2022-10-23T11:42:48;54249.94;;;-146.31;45.96
2036;BME280;23642;42.658;23.350;2022-10-23T11:45:30;54227.22;;;-146.31;46.05
2036;BME280;23642;42.658;23.350;2022-10-23T11:48:00;54237.53;;;-146.31;46.46
2036;BME280;23642;42.658;23.350;2022-10-23T11:50:30;54206.56;;;-146.31;46.14
2036;BME280;23642;42.658;23.350;2022-10-23T11:53:00;54241.69;;;-146.31;45.87
2036;BME280;23642;42.658;23.350;2022-10-23T11:55:30;54291.22;;;-146.31;46.61
2036;BME280;23642;42.658;23.350;2022-10-23T11:58:18;54256.13;;;-146.31;46.19
2036;BME280;23642;42.658;23.350;2022-10-23T12:01:15;54270.59;;;-146.31;45.99
2036;BME280;23642;42.658;23.350;2022-10-23T12:03:50;54256.13;;;-146.31;45.54
2036;BME280;23642;42.658;23.350;2022-10-23T12:06:21;54287.09;;;-146.31;45.52
2036;BME280;23642;42.658;23.350;2022-10-23T12:08:54;54272.66;;;-146.31;45.24
2036;BME280;23642;42.658;23.350;2022-10-23T12:11:25;54260.25;;;-146.31;44.61
2036;BME280;23642;42.658;23.350;2022-10-23T12:13:53;54258.19;;;-146.31;44.64
2036;BME280;23642;42.658;23.350;2022-10-23T12:16:20;54299.50;;;-146.31;45.15
2036;BME280;23642;42.658;23.350;2022-10-23T12:18:50;54316.00;;;-146.31;45.22
2036;BME280;23642;42.658;23.350;2022-10-23T12:21:19;54328.41;;;-146.31;44.96
2036;BME280;23642;42.658;23.350;2022-10-23T12:23:59;54369.69;;;-146.31;45.22
2036;BME280;23642;42.658;23.350;2022-10-23T12:26:54;54342.84;;;-146.31;45.19
2036;BME280;23642;42.658;23.350;2022-10-23T12:29:35;54344.91;;;-146.31;44.31
2036;BME280;23642;42.658;23.350;2022-10-23T12:32:22;54334.59;;;-146.31;44.44
2036;BME280;23642;42.658;23.350;2022-10-23T12:35:06;54349.03;;;-146.31;44.20
2036;BME280;23642;42.658;23.350;2022-10-23T12:37:53;54367.63;;;-146.31;44.44
2036;BME280;23642;42.658;23.350;2022-10-23T12:40:22;54377.94;;;-146.31;44.36
2036;BME280;23642;42.658;23.350;2022-10-23T12:42:55;54386.22;;;-146.31;43.71
2036;BME280;23642;42.658;23.350;2022-10-23T12:45:26;54415.13;;;-146.31;43.97
2036;BME280;23642;42.658;23.350;2022-10-23T12:47:59;54382.09;;;-146.31;43.88
2036;BME280;23642;42.658;23.350;2022-10-23T12:50:29;54394.47;;;-146.31;43.89
2036;BME280;23642;42.658;23.350;2022-10-23T12:53:00;54402.72;;;-146.31;43.84
2036;BME280;23642;42.658;23.350;2022-10-23T12:55:30;54402.72;;;-146.31;44.26
2036;BME280;23642;42.658;23.350;2022-10-23T12:58:25;54392.41;;;-146.31;43.79
2036;BME280;23642;42.658;23.350;2022-10-23T13:00:59;54404.78;;;-146.31;43.87
2036;BME280;23642;42.658;23.350;2022-10-23T13:03:29;54382.09;;;-146.31;44.02
2036;BME280;23642;42.658;23.350;2022-10-23T13:05:58;54404.78;;;-146.31;43.67
2036;BME280;23642;42.658;23.350;2022-10-23T13:08:32;54427.50;;;-146.31;43.70